Weather at Bradley International Airport

Public forecast

Using degrees Fahrenheit for public forecast. Weather courtesy of forecast.io.

Current aviation weather report (METAR) for Bradley International Airport

2024/05/25 10:51 (retrieved 1 hour ago)

KBDL 251051Z 36003KT 10SM SCT250 17/09 A2991 RMK AO2 SLP127 T01670089

Aviation forecast (TAF) for Bradley International Airport

2024/05/25 09:48 Ammendment (retrieved 2 hours ago)

TAF AMD KBDL 250846Z 2509/2612 VRB04KT P6SM SKC FM251600 22006KT P6SM FEW060 FM260000 19005KT P6SM BKN100